sensor_id;sensor_type;location;lat;lon;timestamp;P1;durP1;ratioP1;P2;durP2;ratioP2
73107;SDS011;61559;50.476;15.588;2023-03-14T00:00:28;6.20;;;3.70;;
73107;SDS011;61559;50.476;15.588;2023-03-14T00:03:19;7.50;;;3.50;;
73107;SDS011;61559;50.476;15.588;2023-03-14T00:08:19;5.60;;;2.80;;
73107;SDS011;61559;50.476;15.588;2023-03-14T00:10:51;5.40;;;3.00;;
73107;SDS011;61559;50.476;15.588;2023-03-14T00:13:23;7.30;;;3.30;;
73107;SDS011;61559;50.476;15.588;2023-03-14T00:18:23;5.60;;;3.40;;
73107;SDS011;61559;50.476;15.588;2023-03-14T00:20:54;7.80;;;4.80;;
73107;SDS011;61559;50.476;15.588;2023-03-14T00:23:29;14.50;;;7.10;;
73107;SDS011;61559;50.476;15.588;2023-03-14T00:26:03;17.50;;;8.50;;
73107;SDS011;61559;50.476;15.588;2023-03-14T00:28:37;4.60;;;3.30;;
73107;SDS011;61559;50.476;15.588;2023-03-14T00:31:09;6.60;;;3.40;;
73107;SDS011;61559;50.476;15.588;2023-03-14T00:33:43;6.30;;;3.30;;
73107;SDS011;61559;50.476;15.588;2023-03-14T00:36:15;6.90;;;3.90;;
73107;SDS011;61559;50.476;15.588;2023-03-14T00:38:48;7.40;;;3.70;;
73107;SDS011;61559;50.476;15.588;2023-03-14T00:41:21;5.80;;;3.50;;
73107;SDS011;61559;50.476;15.588;2023-03-14T00:43:53;7.60;;;3.80;;
73107;SDS011;61559;50.476;15.588;2023-03-14T00:46:24;6.50;;;4.00;;
73107;SDS011;61559;50.476;15.588;2023-03-14T00:48:55;5.30;;;3.50;;
73107;SDS011;61559;50.476;15.588;2023-03-14T00:51:26;6.70;;;3.70;;
73107;SDS011;61559;50.476;15.588;2023-03-14T00:53:58;7.00;;;3.20;;
73107;SDS011;61559;50.476;15.588;2023-03-14T00:56:30;10.20;;;5.30;;
73107;SDS011;61559;50.476;15.588;2023-03-14T00:59:01;9.10;;;4.60;;
73107;SDS011;61559;50.476;15.588;2023-03-14T01:01:32;7.10;;;3.80;;
73107;SDS011;61559;50.476;15.588;2023-03-14T01:06:33;8.50;;;3.60;;
73107;SDS011;61559;50.476;15.588;2023-03-14T01:11:34;7.00;;;3.40;;
73107;SDS011;61559;50.476;15.588;2023-03-14T01:14:05;6.90;;;4.10;;
73107;SDS011;61559;50.476;15.588;2023-03-14T01:19:06;6.80;;;3.70;;
73107;SDS011;61559;50.476;15.588;2023-03-14T01:21:38;6.30;;;4.10;;
73107;SDS011;61559;50.476;15.588;2023-03-14T01:24:11;7.00;;;3.90;;
73107;SDS011;61559;50.476;15.588;2023-03-14T01:26:42;7.30;;;4.50;;
73107;SDS011;61559;50.476;15.588;2023-03-14T01:29:14;11.30;;;5.80;;
73107;SDS011;61559;50.476;15.588;2023-03-14T01:31:45;10.20;;;6.00;;
73107;SDS011;61559;50.476;15.588;2023-03-14T01:34:16;7.10;;;4.90;;
73107;SDS011;61559;50.476;15.588;2023-03-14T01:39:17;7.10;;;3.30;;
73107;SDS011;61559;50.476;15.588;2023-03-14T01:41:48;6.60;;;4.00;;
73107;SDS011;61559;50.476;15.588;2023-03-14T01:44:19;8.30;;;3.80;;
73107;SDS011;61559;50.476;15.588;2023-03-14T01:46:50;7.50;;;3.70;;
73107;SDS011;61559;50.476;15.588;2023-03-14T01:49:22;5.70;;;3.70;;
73107;SDS011;61559;50.476;15.588;2023-03-14T01:51:58;8.90;;;5.50;;
73107;SDS011;61559;50.476;15.588;2023-03-14T01:54:32;7.60;;;4.40;;
73107;SDS011;61559;50.476;15.588;2023-03-14T01:57:08;8.50;;;4.50;;
73107;SDS011;61559;50.476;15.588;2023-03-14T01:59:45;8.00;;;4.50;;
73107;SDS011;61559;50.476;15.588;2023-03-14T02:02:20;8.90;;;5.60;;
73107;SDS011;61559;50.476;15.588;2023-03-14T02:04:54;9.40;;;5.30;;
73107;SDS011;61559;50.476;15.588;2023-03-14T02:07:26;8.40;;;4.40;;
73107;SDS011;61559;50.476;15.588;2023-03-14T02:10:03;8.50;;;4.70;;
73107;SDS011;61559;50.476;15.588;2023-03-14T02:12:36;7.90;;;4.90;;
73107;SDS011;61559;50.476;15.588;2023-03-14T02:15:09;7.50;;;4.80;;
73107;SDS011;61559;50.476;15.588;2023-03-14T02:17:41;7.70;;;4.30;;
73107;SDS011;61559;50.476;15.588;2023-03-14T02:20:24;10.50;;;5.20;;
73107;SDS011;61559;50.476;15.588;2023-03-14T02:23:03;11.80;;;5.70;;
73107;SDS011;61559;50.476;15.588;2023-03-14T02:25:38;5.70;;;3.60;;
73107;SDS011;61559;50.476;15.588;2023-03-14T02:28:14;7.80;;;4.70;;
73107;SDS011;61559;50.476;15.588;2023-03-14T02:30:45;5.80;;;3.20;;
73107;SDS011;61559;50.476;15.588;2023-03-14T02:33:17;2.80;;;1.60;;
73107;SDS011;61559;50.476;15.588;2023-03-14T02:35:55;7.00;;;4.00;;
73107;SDS011;61559;50.476;15.588;2023-03-14T02:38:29;5.30;;;3.40;;
73107;SDS011;61559;50.476;15.588;2023-03-14T02:41:04;6.10;;;3.40;;
73107;SDS011;61559;50.476;15.588;2023-03-14T02:43:36;5.60;;;3.50;;
73107;SDS011;61559;50.476;15.588;2023-03-14T02:48:40;5.80;;;3.10;;
73107;SDS011;61559;50.476;15.588;2023-03-14T02:51:14;8.70;;;5.20;;
73107;SDS011;61559;50.476;15.588;2023-03-14T02:53:46;8.30;;;3.90;;
73107;SDS011;61559;50.476;15.588;2023-03-14T03:01:16;4.50;;;2.90;;
73107;SDS011;61559;50.476;15.588;2023-03-14T03:03:48;10.40;;;5.50;;
73107;SDS011;61559;50.476;15.588;2023-03-14T03:08:48;7.90;;;4.40;;
73107;SDS011;61559;50.476;15.588;2023-03-14T03:11:20;5.50;;;3.70;;
73107;SDS011;61559;50.476;15.588;2023-03-14T03:13:51;5.30;;;3.70;;
73107;SDS011;61559;50.476;15.588;2023-03-14T03:18:51;9.30;;;4.20;;
73107;SDS011;61559;50.476;15.588;2023-03-14T03:21:23;6.90;;;4.50;;
73107;SDS011;61559;50.476;15.588;2023-03-14T03:23:54;7.50;;;5.50;;
73107;SDS011;61559;50.476;15.588;2023-03-14T03:28:54;9.60;;;5.40;;
73107;SDS011;61559;50.476;15.588;2023-03-14T03:31:25;7.70;;;4.60;;
73107;SDS011;61559;50.476;15.588;2023-03-14T03:33:57;7.50;;;4.80;;
73107;SDS011;61559;50.476;15.588;2023-03-14T03:36:28;9.40;;;4.10;;
73107;SDS011;61559;50.476;15.588;2023-03-14T03:39:00;7.10;;;3.70;;
73107;SDS011;61559;50.476;15.588;2023-03-14T03:41:31;8.50;;;3.40;;
73107;SDS011;61559;50.476;15.588;2023-03-14T03:46:33;9.90;;;6.80;;
73107;SDS011;61559;50.476;15.588;2023-03-14T03:51:34;9.00;;;5.20;;
73107;SDS011;61559;50.476;15.588;2023-03-14T03:54:05;5.40;;;4.00;;
73107;SDS011;61559;50.476;15.588;2023-03-14T03:56:36;9.90;;;4.50;;
73107;SDS011;61559;50.476;15.588;2023-03-14T04:01:37;6.10;;;3.00;;
73107;SDS011;61559;50.476;15.588;2023-03-14T04:04:08;7.30;;;3.90;;
73107;SDS011;61559;50.476;15.588;2023-03-14T04:09:10;7.90;;;3.80;;
73107;SDS011;61559;50.476;15.588;2023-03-14T04:11:41;7.30;;;3.60;;
73107;SDS011;61559;50.476;15.588;2023-03-14T04:16:42;6.60;;;3.60;;
73107;SDS011;61559;50.476;15.588;2023-03-14T04:19:13;5.50;;;3.50;;
73107;SDS011;61559;50.476;15.588;2023-03-14T04:21:44;6.60;;;4.20;;
73107;SDS011;61559;50.476;15.588;2023-03-14T04:26:45;8.00;;;3.80;;
73107;SDS011;61559;50.476;15.588;2023-03-14T04:29:16;5.00;;;3.50;;
73107;SDS011;61559;50.476;15.588;2023-03-14T04:31:48;6.30;;;4.10;;
73107;SDS011;61559;50.476;15.588;2023-03-14T04:39:18;7.70;;;4.50;;
73107;SDS011;61559;50.476;15.588;2023-03-14T04:41:50;17.50;;;8.50;;
73107;SDS011;61559;50.476;15.588;2023-03-14T04:44:22;12.60;;;7.80;;
73107;SDS011;61559;50.476;15.588;2023-03-14T04:46:53;15.30;;;9.50;;
73107;SDS011;61559;50.476;15.588;2023-03-14T04:49:24;14.20;;;9.60;;
73107;SDS011;61559;50.476;15.588;2023-03-14T04:51:55;13.40;;;8.10;;
73107;SDS011;61559;50.476;15.588;2023-03-14T04:54:27;15.50;;;9.20;;
73107;SDS011;61559;50.476;15.588;2023-03-14T04:56:58;16.40;;;9.50;;
73107;SDS011;61559;50.476;15.588;2023-03-14T04:59:30;16.60;;;9.80;;
73107;SDS011;61559;50.476;15.588;2023-03-14T05:02:01;10.70;;;6.60;;
73107;SDS011;61559;50.476;15.588;2023-03-14T05:04:32;10.00;;;6.00;;
73107;SDS011;61559;50.476;15.588;2023-03-14T05:07:03;7.80;;;5.10;;
73107;SDS011;61559;50.476;15.588;2023-03-14T05:12:04;11.70;;;5.60;;
73107;SDS011;61559;50.476;15.588;2023-03-14T05:14:36;9.00;;;6.00;;
73107;SDS011;61559;50.476;15.588;2023-03-14T05:17:09;5.90;;;4.10;;
73107;SDS011;61559;50.476;15.588;2023-03-14T05:19:43;6.50;;;4.10;;
73107;SDS011;61559;50.476;15.588;2023-03-14T05:22:14;7.20;;;4.00;;
73107;SDS011;61559;50.476;15.588;2023-03-14T05:24:45;6.30;;;4.10;;
73107;SDS011;61559;50.476;15.588;2023-03-14T05:29:46;6.40;;;3.60;;
73107;SDS011;61559;50.476;15.588;2023-03-14T05:32:17;6.60;;;3.80;;
73107;SDS011;61559;50.476;15.588;2023-03-14T05:34:48;6.40;;;4.30;;
73107;SDS011;61559;50.476;15.588;2023-03-14T05:39:49;8.50;;;5.00;;
73107;SDS011;61559;50.476;15.588;2023-03-14T05:42:20;7.40;;;4.90;;
73107;SDS011;61559;50.476;15.588;2023-03-14T05:44:51;7.30;;;4.80;;
73107;SDS011;61559;50.476;15.588;2023-03-14T05:49:52;6.80;;;4.00;;
73107;SDS011;61559;50.476;15.588;2023-03-14T05:52:23;5.70;;;3.90;;
73107;SDS011;61559;50.476;15.588;2023-03-14T05:54:54;7.70;;;4.60;;
73107;SDS011;61559;50.476;15.588;2023-03-14T05:57:25;8.40;;;5.00;;
73107;SDS011;61559;50.476;15.588;2023-03-14T05:59:56;6.40;;;4.20;;
73107;SDS011;61559;50.476;15.588;2023-03-14T06:02:29;7.70;;;5.10;;
73107;SDS011;61559;50.476;15.588;2023-03-14T06:07:29;8.10;;;4.40;;
73107;SDS011;61559;50.476;15.588;2023-03-14T06:10:00;9.10;;;5.10;;
73107;SDS011;61559;50.476;15.588;2023-03-14T06:12:32;8.30;;;4.80;;
73107;SDS011;61559;50.476;15.588;2023-03-14T06:15:03;9.00;;;4.90;;
73107;SDS011;61559;50.476;15.588;2023-03-14T06:17:36;5.80;;;3.70;;
73107;SDS011;61559;50.476;15.588;2023-03-14T06:20:08;7.30;;;4.60;;
73107;SDS011;61559;50.476;15.588;2023-03-14T06:22:40;8.50;;;5.00;;
73107;SDS011;61559;50.476;15.588;2023-03-14T06:25:11;7.90;;;4.90;;
73107;SDS011;61559;50.476;15.588;2023-03-14T06:30:12;14.00;;;7.10;;
73107;SDS011;61559;50.476;15.588;2023-03-14T06:32:43;13.60;;;7.50;;
73107;SDS011;61559;50.476;15.588;2023-03-14T06:35:14;12.80;;;7.60;;
73107;SDS011;61559;50.476;15.588;2023-03-14T06:37:45;20.50;;;11.90;;
73107;SDS011;61559;50.476;15.588;2023-03-14T06:40:17;17.90;;;10.40;;
73107;SDS011;61559;50.476;15.588;2023-03-14T06:42:48;18.30;;;10.50;;
73107;SDS011;61559;50.476;15.588;2023-03-14T06:45:19;15.70;;;10.60;;
73107;SDS011;61559;50.476;15.588;2023-03-14T06:47:50;20.50;;;10.80;;
73107;SDS011;61559;50.476;15.588;2023-03-14T06:50:21;19.40;;;12.40;;
73107;SDS011;61559;50.476;15.588;2023-03-14T06:52:52;21.80;;;11.10;;
73107;SDS011;61559;50.476;15.588;2023-03-14T06:57:54;14.80;;;7.80;;
73107;SDS011;61559;50.476;15.588;2023-03-14T07:02:55;16.40;;;8.50;;
73107;SDS011;61559;50.476;15.588;2023-03-14T07:05:26;14.20;;;8.40;;
73107;SDS011;61559;50.476;15.588;2023-03-14T07:07:58;12.60;;;7.50;;
73107;SDS011;61559;50.476;15.588;2023-03-14T07:10:29;13.30;;;7.40;;
73107;SDS011;61559;50.476;15.588;2023-03-14T07:15:30;31.40;;;13.70;;
73107;SDS011;61559;50.476;15.588;2023-03-14T07:18:01;34.80;;;17.90;;
73107;SDS011;61559;50.476;15.588;2023-03-14T07:20:32;36.90;;;20.00;;
73107;SDS011;61559;50.476;15.588;2023-03-14T07:23:03;121.30;;;43.00;;
73107;SDS011;61559;50.476;15.588;2023-03-14T07:28:04;58.00;;;22.50;;
73107;SDS011;61559;50.476;15.588;2023-03-14T07:33:04;21.50;;;9.30;;
73107;SDS011;61559;50.476;15.588;2023-03-14T07:35:38;24.70;;;13.20;;
73107;SDS011;61559;50.476;15.588;2023-03-14T07:38:09;23.40;;;12.30;;
73107;SDS011;61559;50.476;15.588;2023-03-14T07:40:40;24.80;;;12.20;;
73107;SDS011;61559;50.476;15.588;2023-03-14T07:43:11;24.10;;;11.90;;
73107;SDS011;61559;50.476;15.588;2023-03-14T07:45:44;28.10;;;12.90;;
73107;SDS011;61559;50.476;15.588;2023-03-14T07:48:18;45.70;;;24.60;;
73107;SDS011;61559;50.476;15.588;2023-03-14T07:50:50;30.60;;;14.50;;
73107;SDS011;61559;50.476;15.588;2023-03-14T07:53:22;18.20;;;9.90;;
73107;SDS011;61559;50.476;15.588;2023-03-14T07:55:53;22.30;;;12.30;;
73107;SDS011;61559;50.476;15.588;2023-03-14T08:03:24;17.00;;;9.40;;
73107;SDS011;61559;50.476;15.588;2023-03-14T08:05:55;14.90;;;8.10;;
73107;SDS011;61559;50.476;15.588;2023-03-14T08:08:26;17.20;;;8.30;;
73107;SDS011;61559;50.476;15.588;2023-03-14T08:11:02;13.30;;;7.90;;
73107;SDS011;61559;50.476;15.588;2023-03-14T08:13:36;13.20;;;6.60;;
73107;SDS011;61559;50.476;15.588;2023-03-14T08:16:08;12.50;;;6.10;;
73107;SDS011;61559;50.476;15.588;2023-03-14T08:18:39;8.40;;;5.80;;
73107;SDS011;61559;50.476;15.588;2023-03-14T08:21:10;10.30;;;6.10;;
73107;SDS011;61559;50.476;15.588;2023-03-14T08:23:42;11.70;;;6.90;;
73107;SDS011;61559;50.476;15.588;2023-03-14T08:28:42;13.60;;;8.70;;
73107;SDS011;61559;50.476;15.588;2023-03-14T08:33:43;8.90;;;5.20;;
73107;SDS011;61559;50.476;15.588;2023-03-14T08:36:14;12.20;;;6.30;;
73107;SDS011;61559;50.476;15.588;2023-03-14T08:38:49;9.80;;;5.70;;
73107;SDS011;61559;50.476;15.588;2023-03-14T08:41:20;9.30;;;5.70;;
73107;SDS011;61559;50.476;15.588;2023-03-14T08:43:51;10.30;;;5.80;;
73107;SDS011;61559;50.476;15.588;2023-03-14T08:46:23;11.60;;;6.30;;
73107;SDS011;61559;50.476;15.588;2023-03-14T08:48:54;12.90;;;5.20;;
73107;SDS011;61559;50.476;15.588;2023-03-14T08:51:25;8.70;;;5.60;;
73107;SDS011;61559;50.476;15.588;2023-03-14T08:53:57;19.90;;;11.80;;
73107;SDS011;61559;50.476;15.588;2023-03-14T08:56:28;13.40;;;7.20;;
73107;SDS011;61559;50.476;15.588;2023-03-14T08:58:59;11.80;;;5.90;;
73107;SDS011;61559;50.476;15.588;2023-03-14T09:01:30;11.10;;;6.60;;
73107;SDS011;61559;50.476;15.588;2023-03-14T09:04:03;10.60;;;6.90;;
73107;SDS011;61559;50.476;15.588;2023-03-14T09:06:35;9.80;;;6.20;;
73107;SDS011;61559;50.476;15.588;2023-03-14T09:09:06;10.20;;;6.30;;
73107;SDS011;61559;50.476;15.588;2023-03-14T09:11:37;18.20;;;10.20;;
73107;SDS011;61559;50.476;15.588;2023-03-14T09:16:37;9.80;;;4.40;;
73107;SDS011;61559;50.476;15.588;2023-03-14T09:19:09;8.70;;;5.20;;
73107;SDS011;61559;50.476;15.588;2023-03-14T09:21:40;14.60;;;7.00;;
73107;SDS011;61559;50.476;15.588;2023-03-14T09:24:11;19.80;;;11.30;;
73107;SDS011;61559;50.476;15.588;2023-03-14T09:31:41;9.70;;;6.40;;
73107;SDS011;61559;50.476;15.588;2023-03-14T09:34:12;13.80;;;6.80;;
73107;SDS011;61559;50.476;15.588;2023-03-14T09:36:43;13.30;;;7.30;;
73107;SDS011;61559;50.476;15.588;2023-03-14T09:39:15;17.90;;;8.60;;
73107;SDS011;61559;50.476;15.588;2023-03-14T09:41:47;17.20;;;8.80;;
73107;SDS011;61559;50.476;15.588;2023-03-14T09:44:21;9.30;;;5.40;;
73107;SDS011;61559;50.476;15.588;2023-03-14T09:46:57;11.30;;;6.30;;
73107;SDS011;61559;50.476;15.588;2023-03-14T09:49:32;12.10;;;6.00;;
73107;SDS011;61559;50.476;15.588;2023-03-14T09:52:07;18.40;;;8.70;;
73107;SDS011;61559;50.476;15.588;2023-03-14T09:54:44;13.10;;;6.90;;
73107;SDS011;61559;50.476;15.588;2023-03-14T09:57:17;14.10;;;7.20;;
73107;SDS011;61559;50.476;15.588;2023-03-14T09:59:51;17.50;;;7.70;;
73107;SDS011;61559;50.476;15.588;2023-03-14T10:02:28;9.00;;;5.40;;
73107;SDS011;61559;50.476;15.588;2023-03-14T10:05:07;11.00;;;5.30;;
73107;SDS011;61559;50.476;15.588;2023-03-14T10:07:46;7.00;;;4.10;;
73107;SDS011;61559;50.476;15.588;2023-03-14T10:10:19;7.20;;;4.10;;
73107;SDS011;61559;50.476;15.588;2023-03-14T10:12:56;7.80;;;4.10;;
73107;SDS011;61559;50.476;15.588;2023-03-14T10:15:29;11.30;;;5.60;;
73107;SDS011;61559;50.476;15.588;2023-03-14T10:18:04;7.00;;;4.10;;
73107;SDS011;61559;50.476;15.588;2023-03-14T10:20:44;9.30;;;4.30;;
73107;SDS011;61559;50.476;15.588;2023-03-14T10:23:22;6.40;;;4.50;;
73107;SDS011;61559;50.476;15.588;2023-03-14T10:26:00;6.20;;;4.00;;
73107;SDS011;61559;50.476;15.588;2023-03-14T10:28:37;7.90;;;3.70;;
73107;SDS011;61559;50.476;15.588;2023-03-14T10:31:12;8.00;;;4.10;;
73107;SDS011;61559;50.476;15.588;2023-03-14T10:33:43;5.30;;;3.60;;
73107;SDS011;61559;50.476;15.588;2023-03-14T10:36:29;5.40;;;3.20;;
73107;SDS011;61559;50.476;15.588;2023-03-14T10:39:15;7.80;;;3.40;;
73107;SDS011;61559;50.476;15.588;2023-03-14T10:41:56;5.20;;;3.50;;
73107;SDS011;61559;50.476;15.588;2023-03-14T10:44:33;8.70;;;3.60;;
73107;SDS011;61559;50.476;15.588;2023-03-14T10:47:06;7.90;;;3.70;;
73107;SDS011;61559;50.476;15.588;2023-03-14T10:49:44;7.90;;;3.10;;
73107;SDS011;61559;50.476;15.588;2023-03-14T10:52:18;4.80;;;3.10;;
73107;SDS011;61559;50.476;15.588;2023-03-14T10:55:12;6.50;;;2.70;;
73107;SDS011;61559;50.476;15.588;2023-03-14T10:57:43;4.70;;;3.10;;
73107;SDS011;61559;50.476;15.588;2023-03-14T11:00:16;4.60;;;2.70;;
73107;SDS011;61559;50.476;15.588;2023-03-14T11:02:52;2.60;;;1.80;;
73107;SDS011;61559;50.476;15.588;2023-03-14T11:05:38;3.00;;;1.90;;
73107;SDS011;61559;50.476;15.588;2023-03-14T11:08:15;4.10;;;2.70;;
73107;SDS011;61559;50.476;15.588;2023-03-14T11:10:54;5.00;;;2.10;;
73107;SDS011;61559;50.476;15.588;2023-03-14T11:13:35;3.50;;;1.80;;
73107;SDS011;61559;50.476;15.588;2023-03-14T11:16:16;2.90;;;1.70;;
73107;SDS011;61559;50.476;15.588;2023-03-14T11:19:01;4.30;;;1.80;;
73107;SDS011;61559;50.476;15.588;2023-03-14T11:21:43;2.70;;;1.80;;
73107;SDS011;61559;50.476;15.588;2023-03-14T11:24:31;3.90;;;2.00;;
73107;SDS011;61559;50.476;15.588;2023-03-14T11:27:13;3.60;;;2.00;;
73107;SDS011;61559;50.476;15.588;2023-03-14T11:29:51;4.80;;;2.30;;
73107;SDS011;61559;50.476;15.588;2023-03-14T11:32:36;5.80;;;2.60;;
73107;SDS011;61559;50.476;15.588;2023-03-14T11:35:16;3.80;;;2.00;;
73107;SDS011;61559;50.476;15.588;2023-03-14T11:37:53;3.20;;;1.30;;
73107;SDS011;61559;50.476;15.588;2023-03-14T11:40:31;5.90;;;2.20;;
73107;SDS011;61559;50.476;15.588;2023-03-14T11:43:05;5.40;;;2.20;;
73107;SDS011;61559;50.476;15.588;2023-03-14T11:45:43;10.40;;;3.60;;
73107;SDS011;61559;50.476;15.588;2023-03-14T11:48:22;12.70;;;4.10;;
73107;SDS011;61559;50.476;15.588;2023-03-14T11:51:04;17.20;;;6.10;;
73107;SDS011;61559;50.476;15.588;2023-03-14T11:53:43;10.60;;;4.20;;
73107;SDS011;61559;50.476;15.588;2023-03-14T11:56:22;11.80;;;4.20;;
73107;SDS011;61559;50.476;15.588;2023-03-14T11:58:59;18.60;;;6.80;;
73107;SDS011;61559;50.476;15.588;2023-03-14T12:01:40;28.30;;;9.30;;
73107;SDS011;61559;50.476;15.588;2023-03-14T12:04:21;27.50;;;9.30;;
73107;SDS011;61559;50.476;15.588;2023-03-14T12:07:12;29.80;;;8.10;;
73107;SDS011;61559;50.476;15.588;2023-03-14T12:09:47;18.40;;;8.00;;
73107;SDS011;61559;50.476;15.588;2023-03-14T12:12:20;11.50;;;5.00;;
73107;SDS011;61559;50.476;15.588;2023-03-14T12:14:55;8.40;;;4.30;;
73107;SDS011;61559;50.476;15.588;2023-03-14T12:17:35;11.00;;;4.90;;
73107;SDS011;61559;50.476;15.588;2023-03-14T12:20:11;33.00;;;9.40;;
73107;SDS011;61559;50.476;15.588;2023-03-14T12:22:49;18.40;;;6.80;;
73107;SDS011;61559;50.476;15.588;2023-03-14T12:25:22;15.50;;;4.10;;
73107;SDS011;61559;50.476;15.588;2023-03-14T12:28:12;26.60;;;9.10;;
73107;SDS011;61559;50.476;15.588;2023-03-14T12:30:48;20.10;;;8.10;;
73107;SDS011;61559;50.476;15.588;2023-03-14T12:33:29;40.20;;;11.60;;
73107;SDS011;61559;50.476;15.588;2023-03-14T12:36:10;23.40;;;7.70;;
73107;SDS011;61559;50.476;15.588;2023-03-14T12:39:00;33.70;;;11.20;;
73107;SDS011;61559;50.476;15.588;2023-03-14T12:41:40;24.10;;;7.70;;
73107;SDS011;61559;50.476;15.588;2023-03-14T12:50:18;14.70;;;5.80;;
73107;SDS011;61559;50.476;15.588;2023-03-14T12:53:07;16.90;;;6.90;;
73107;SDS011;61559;50.476;15.588;2023-03-14T12:56:07;19.30;;;6.60;;
73107;SDS011;61559;50.476;15.588;2023-03-14T12:58:54;18.70;;;8.30;;
73107;SDS011;61559;50.476;15.588;2023-03-14T13:01:32;39.30;;;12.10;;
73107;SDS011;61559;50.476;15.588;2023-03-14T13:04:06;30.40;;;11.60;;
73107;SDS011;61559;50.476;15.588;2023-03-14T13:12:22;13.80;;;5.60;;
73107;SDS011;61559;50.476;15.588;2023-03-14T13:14:58;12.70;;;4.60;;
73107;SDS011;61559;50.476;15.588;2023-03-14T13:17:32;27.70;;;8.10;;
73107;SDS011;61559;50.476;15.588;2023-03-14T13:20:10;31.00;;;10.20;;
73107;SDS011;61559;50.476;15.588;2023-03-14T13:22:47;21.70;;;8.00;;
73107;SDS011;61559;50.476;15.588;2023-03-14T13:25:18;17.80;;;6.70;;
73107;SDS011;61559;50.476;15.588;2023-03-14T13:27:51;10.10;;;3.40;;
73107;SDS011;61559;50.476;15.588;2023-03-14T13:30:24;5.90;;;2.30;;
73107;SDS011;61559;50.476;15.588;2023-03-14T13:32:57;22.90;;;7.90;;
73107;SDS011;61559;50.476;15.588;2023-03-14T13:35:40;15.70;;;4.80;;
73107;SDS011;61559;50.476;15.588;2023-03-14T13:38:20;22.10;;;6.90;;
73107;SDS011;61559;50.476;15.588;2023-03-14T13:40:53;8.40;;;2.70;;
73107;SDS011;61559;50.476;15.588;2023-03-14T13:43:29;13.30;;;4.80;;
73107;SDS011;61559;50.476;15.588;2023-03-14T13:46:03;5.90;;;2.60;;
73107;SDS011;61559;50.476;15.588;2023-03-14T13:48:39;3.30;;;0.90;;
73107;SDS011;61559;50.476;15.588;2023-03-14T13:51:15;9.20;;;3.90;;
73107;SDS011;61559;50.476;15.588;2023-03-14T13:53:48;9.10;;;4.10;;
73107;SDS011;61559;50.476;15.588;2023-03-14T13:56:20;4.00;;;2.10;;
73107;SDS011;61559;50.476;15.588;2023-03-14T13:58:53;2.70;;;1.80;;
73107;SDS011;61559;50.476;15.588;2023-03-14T14:01:25;5.00;;;2.50;;
73107;SDS011;61559;50.476;15.588;2023-03-14T14:04:02;3.00;;;2.00;;
73107;SDS011;61559;50.476;15.588;2023-03-14T14:06:38;4.90;;;1.90;;
73107;SDS011;61559;50.476;15.588;2023-03-14T14:09:18;3.90;;;1.30;;
73107;SDS011;61559;50.476;15.588;2023-03-14T14:11:53;2.10;;;1.50;;
73107;SDS011;61559;50.476;15.588;2023-03-14T14:14:44;5.00;;;3.40;;
73107;SDS011;61559;50.476;15.588;2023-03-14T14:17:18;3.20;;;1.20;;
73107;SDS011;61559;50.476;15.588;2023-03-14T14:19:53;1.80;;;1.10;;
73107;SDS011;61559;50.476;15.588;2023-03-14T14:22:25;4.30;;;2.90;;
73107;SDS011;61559;50.476;15.588;2023-03-14T14:24:57;5.30;;;2.20;;
73107;SDS011;61559;50.476;15.588;2023-03-14T14:27:32;3.30;;;1.50;;
73107;SDS011;61559;50.476;15.588;2023-03-14T14:30:25;3.00;;;1.90;;
73107;SDS011;61559;50.476;15.588;2023-03-14T14:33:12;6.00;;;2.20;;
73107;SDS011;61559;50.476;15.588;2023-03-14T14:35:53;4.80;;;1.80;;
73107;SDS011;61559;50.476;15.588;2023-03-14T14:38:26;5.80;;;4.20;;
73107;SDS011;61559;50.476;15.588;2023-03-14T14:41:00;6.80;;;3.80;;
73107;SDS011;61559;50.476;15.588;2023-03-14T14:43:34;4.60;;;2.60;;
73107;SDS011;61559;50.476;15.588;2023-03-14T14:46:09;3.10;;;1.60;;
73107;SDS011;61559;50.476;15.588;2023-03-14T14:48:46;3.70;;;2.00;;
73107;SDS011;61559;50.476;15.588;2023-03-14T14:51:24;4.00;;;2.00;;
73107;SDS011;61559;50.476;15.588;2023-03-14T14:54:02;3.60;;;1.90;;
73107;SDS011;61559;50.476;15.588;2023-03-14T14:56:39;5.20;;;3.40;;
73107;SDS011;61559;50.476;15.588;2023-03-14T14:59:25;22.00;;;14.50;;
73107;SDS011;61559;50.476;15.588;2023-03-14T15:01:58;4.60;;;2.90;;
73107;SDS011;61559;50.476;15.588;2023-03-14T15:04:31;12.70;;;7.80;;
73107;SDS011;61559;50.476;15.588;2023-03-14T15:07:02;4.00;;;1.90;;
73107;SDS011;61559;50.476;15.588;2023-03-14T15:09:34;8.00;;;3.90;;
73107;SDS011;61559;50.476;15.588;2023-03-14T15:12:05;4.70;;;2.50;;
73107;SDS011;61559;50.476;15.588;2023-03-14T15:14:37;5.00;;;2.50;;
73107;SDS011;61559;50.476;15.588;2023-03-14T15:17:09;3.20;;;2.00;;
73107;SDS011;61559;50.476;15.588;2023-03-14T15:19:42;3.20;;;0.90;;
73107;SDS011;61559;50.476;15.588;2023-03-14T15:22:13;2.50;;;1.60;;
73107;SDS011;61559;50.476;15.588;2023-03-14T15:24:44;2.10;;;1.60;;
73107;SDS011;61559;50.476;15.588;2023-03-14T15:27:16;3.80;;;2.50;;
73107;SDS011;61559;50.476;15.588;2023-03-14T15:29:48;5.10;;;2.40;;
73107;SDS011;61559;50.476;15.588;2023-03-14T15:32:20;3.50;;;1.50;;
73107;SDS011;61559;50.476;15.588;2023-03-14T15:34:52;1.80;;;1.10;;
73107;SDS011;61559;50.476;15.588;2023-03-14T15:37:25;8.90;;;4.70;;
73107;SDS011;61559;50.476;15.588;2023-03-14T15:39:56;4.50;;;2.40;;
73107;SDS011;61559;50.476;15.588;2023-03-14T15:42:27;8.10;;;3.00;;
73107;SDS011;61559;50.476;15.588;2023-03-14T15:44:58;7.20;;;3.70;;
73107;SDS011;61559;50.476;15.588;2023-03-14T15:47:29;6.60;;;3.20;;
73107;SDS011;61559;50.476;15.588;2023-03-14T15:50:01;4.50;;;2.00;;
73107;SDS011;61559;50.476;15.588;2023-03-14T15:52:32;2.90;;;1.30;;
73107;SDS011;61559;50.476;15.588;2023-03-14T15:55:04;4.30;;;1.50;;
73107;SDS011;61559;50.476;15.588;2023-03-14T15:57:35;3.20;;;1.70;;
73107;SDS011;61559;50.476;15.588;2023-03-14T16:00:12;3.80;;;1.70;;
73107;SDS011;61559;50.476;15.588;2023-03-14T16:02:46;4.90;;;1.30;;
73107;SDS011;61559;50.476;15.588;2023-03-14T16:05:18;3.40;;;1.80;;
73107;SDS011;61559;50.476;15.588;2023-03-14T16:07:49;2.60;;;1.70;;
73107;SDS011;61559;50.476;15.588;2023-03-14T16:10:21;3.70;;;1.30;;
73107;SDS011;61559;50.476;15.588;2023-03-14T16:12:52;4.90;;;2.10;;
73107;SDS011;61559;50.476;15.588;2023-03-14T16:15:23;3.20;;;1.40;;
73107;SDS011;61559;50.476;15.588;2023-03-14T16:17:55;5.00;;;2.10;;
73107;SDS011;61559;50.476;15.588;2023-03-14T16:20:27;8.30;;;2.80;;
73107;SDS011;61559;50.476;15.588;2023-03-14T16:23:14;4.50;;;2.30;;
73107;SDS011;61559;50.476;15.588;2023-03-14T16:25:45;7.80;;;3.40;;
73107;SDS011;61559;50.476;15.588;2023-03-14T16:28:17;6.90;;;4.10;;
73107;SDS011;61559;50.476;15.588;2023-03-14T16:30:48;6.80;;;3.10;;
73107;SDS011;61559;50.476;15.588;2023-03-14T16:33:19;3.00;;;1.60;;
73107;SDS011;61559;50.476;15.588;2023-03-14T16:35:54;2.30;;;1.40;;
73107;SDS011;61559;50.476;15.588;2023-03-14T16:38:25;5.20;;;3.80;;
73107;SDS011;61559;50.476;15.588;2023-03-14T16:41:01;8.10;;;3.90;;
73107;SDS011;61559;50.476;15.588;2023-03-14T16:43:34;2.60;;;1.40;;
73107;SDS011;61559;50.476;15.588;2023-03-14T16:46:06;11.20;;;5.00;;
73107;SDS011;61559;50.476;15.588;2023-03-14T16:48:40;4.30;;;2.50;;
73107;SDS011;61559;50.476;15.588;2023-03-14T16:51:12;4.80;;;2.20;;
73107;SDS011;61559;50.476;15.588;2023-03-14T16:53:44;7.60;;;4.50;;